ENFL/FRO METAR and TAF weather

Enter ICAO airport designator
Station Type Date Time Source
ENFL METAR 2021/07/24 19:20 UTC NOAA

ENFL 241920Z AUTO 35004KT 320V020 9999NDV BKN008/// OVC010/// 15/13 Q1017


Station Type Date Time Source
ENFL Decoded METAR 2021/07/24 19:20 UTC NOAA

Floro, Norway (ENFL) 61-35N 005-02E 9M
Jul 24, 2021 - 03:20 PM EDT / 2021.07.24 1920 UTC
Wind: from the N (350 degrees) at 5 MPH (4 KT) (direction variable):0
Sky conditions: overcast
Temperature: 59 F (15 C)
Dew Point: 55 F (13 C)
Relative Humidity: 87%
Pressure (altimeter): 30.03 in. Hg (1017 hPa)
ob: ENFL 241920Z AUTO 35004KT 320V020 9999NDV BKN008/// OVC010/// 15/13 Q1017
cycle: 19

Station Type Date Time Source
ENFL TAF 2010/02/05 07:50 UTC NOAA

METAR ENFL 050750Z 16019KT 140V200 9999 FEW015 SCT030 BKN055 03/M03 Q1011

Example: see airport list